Loisir ou Compétition : Rejoignez un Club de la Fédération

Résultats

CRJ Benjamins du 20 01 2007 A RISOUL 1850

RISOUL

GS Hommes

Jury de Compétition

Délégué Technique :
TRAVAIL JEAN LOUIS (AP)
Arbitre :
BAROU MICHAEL (AP)
Assistant :
 
Dir. Epreuve :
MANENT JEAN FRANCOI (AP)

Caractéristiques de la Piste

Piste :
LE SERPENT
Départ :
2160
Arrivée :
1960
Dénivelé :
200
Homologation :
1927/03/02

Manche 1

Nombre de Portes :
24
Heure de Départ :
10H15
Traceur :
DYEN JEAN LOUIS (AP)
Ouvreurs A :
 
Ouvreurs B :
 
Ouvreurs C :
 
Ouvreurs D :
 
Ouvreurs E :
 
Temps :
 
Neige :
 

Manche 2

Nombre de Portes :
24
Heure de Départ :
12H30
Traceur :
VOIRON SANDRA (AP)
Ouvreurs A :
 
Ouvreurs B :
 
Ouvreurs C :
 
Ouvreurs D :
 
Ouvreurs E :
 
Température Départ :
 
Température Arrivée :
 

Pénalité Appliquée :
193.0800

Catégorie :
Ben
Clt Dos Clt/Cat Code An Nom Prénom Com Club Tps M1 Tps M2 Tps Tot Pts
Classés
1 40 1/Ben FFS2349098 1994 JOIN SEBASTIEN AP SERRE CHEVAL 40.97 42.05 1:23.02 193.08
2 36 2/Ben FFS2319287 1994 ALLEGRE NILS AP SERRE CHEVAL 40.79 43.35 1:24.14 204.95
3 59 3/Ben FFS2602870 1994 RICOU IVO AP EC CHAMPSAUR 41.45 43.27 1:24.72 211.10
4 42 4/Ben FFS2348971 1994 ALBANO LORIS AP SEYNE BLANCH 40.99 44.02 1:25.01 214.17
5 24 5/Ben FFS2349113 1994 SARRAZIN CYPRIEN AP US VEYNOISE 41.89 44.17 1:26.06 225.30
6 65 6/Ben FFS2601030 1994 HUBAUD MAXIME AP EC CHAMPSAUR 42.70 44.15 1:26.85 233.68
7 152 7/Ben FFS2349082 1994 MAGALLON REMI AP ASPTT GAP 43.08 43.96 1:27.04 235.69
8 15 8/Ben FFS2349208 1995 NIEL THOMAS AP PUY ST VINCE 42.10 44.96 1:27.06 235.90
9 11 9/Ben FFS2604593 1994 LAMOUR BENOIT AP SAUZE BARCEL 42.93 45.14 1:28.07 246.61
10 6 10/Ben FFS2602315 1994 NARDINI YANNICK AP ORRES EMBRUN 43.01 45.07 1:28.08 246.72
11 74 11/Ben FFS2600860 1995 MONIER QUENTIN AP SERRE CHEVAL 43.34 44.82 1:28.16 247.56
12 28 12/Ben FFS2602326 1994 GAUDISSARD GAETAN AP ORRES EMBRUN 42.73 45.65 1:28.38 249.90
13 2 13/Ben FFS2602977 1995 TALOTTA FLORIAN AP EC CHAMPSAUR 42.84 46.05 1:28.89 255.30
14 14 14/Ben FFS2602419 1995 BLANC DAMIEN AP CS RISOUL 42.89 46.03 1:28.92 255.62
15 75 15/Ben FFS2600757 1994 CHAVANNE SIMON AP SC MONGENEVR 44.31 44.68 1:28.99 256.36
16 62 16/Ben FFS2349003 1994 DUMONT LEO AP ES VALLOUISE 43.75 45.55 1:29.30 259.65
17 89 17/Ben FFS2318997 1995 AYNARD THIBAUT AP ST ANNE JAUS 44.18 45.18 1:29.36 260.28
18 93 18/Ben FFS2602123 1995 LACROIX VALENTIN AP CSH BRIANCON 43.30 46.31 1:29.61 262.93
19 57 19/Ben FFS2613075 1994 BERTRAND SYLVAIN AP GAP MERLETTE 43.83 45.82 1:29.65 263.36
20 66 20/Ben FFS2613809 1994 MACHET ANTOINE AP SC MONGENEVR 44.61 45.11 1:29.72 264.10
21 82 21/Ben FFS2349005 1995 BERLA FRANCK AP ES VALLOUISE 44.87 44.99 1:29.86 265.58
22 52 22/Ben FFS2602317 1995 TRILLES QUENTIN AP ORRES EMBRUN 43.98 45.91 1:29.89 265.90
23 25 23/Ben FFS2600694 1995 PRIEUR THEO AP SEYNE BLANCH 43.63 46.43 1:30.06 267.70
24 32 24/Ben FFS2602103 1995 MEYER GUILLAUME AP CSH BRIANCON 43.79 46.30 1:30.09 268.02
25 61 25/Ben FFS2604254 1995 CORDIER JORIS AP GAZELEC GAP 44.25 45.85 1:30.10 268.13
26 44 26/Ben FFS2600856 1995 FRICK MEDHI YANN AP SERRE CHEVAL 44.12 46.01 1:30.13 268.44
27 35 27/Ben FFS2602871 1994 RICOU SANDER AP ORC MERLETTE 44.55 45.59 1:30.14 268.55
28 94 28/Ben FFS2613504 1994 MATHERON ETIENNE AP US ANCELLE 43.66 46.52 1:30.18 268.97
29 86 29/Ben FFS2348992 1994 GRYZKA THEO AP CSH BRIANCON 43.99 46.20 1:30.19 269.08
30 76 30/Ben FFS2349485 1994 VINCENT MAXIME AP EC CHAMPSAUR 44.49 45.88 1:30.37 270.99
31 18 31/Ben FFS2602996 1995 REGUERA PABLO AP SPORTIN VARS 43.72 46.68 1:30.40 271.31
32 88 32/Ben FFS2349077 1994 COQUIN CORENTIN AP SEYNE BLANCH 44.73 45.71 1:30.44 271.73
33 58 33/Ben FFS2603816 1994 STEIMER ALEXANDRE AP VAL D'ALLOS 44.18 46.39 1:30.57 273.11
34 87 34/Ben FFS2606065 1995 LABERTRANDE BRICE AP ORRES EMBRUN 44.56 46.05 1:30.61 273.53
35 54 35/Ben FFS2349357 1995 CASTANER ULYSSE AP CO PRALOUP 44.31 46.49 1:30.80 275.55
36 39 36/Ben FFS2349168 1994 JAUSSAUD SIMON AP SC ST LEGER 44.43 46.48 1:30.91 276.71
37 20 37/Ben FFS2618703 1994 BOISSET SYLVAIN AP ES VALLOUISE 44.49 46.51 1:31.00 277.67
38 17 38/Ben FFS2349355 1994 SINDOU FLAVIEN AP CO PRALOUP 44.42 46.66 1:31.08 278.51
39 47 39/Ben FFS2348951 1994 FOSSATI GAETAN AP SAUZE BARCEL 44.95 46.21 1:31.16 279.36
40 67 40/Ben FFS2602356 1995 ASTIER SIMON AP ES VALLOUISE 44.96 46.23 1:31.19 279.68
41 70 41/Ben FFS2605001 1995 AUGUSTIN CLEMENT AP CO PRALOUP 45.09 46.17 1:31.26 280.42
42 27 42/Ben FFS2602319 1995 DULIN ARTHUR AP ORRES EMBRUN 45.06 46.26 1:31.32 281.06
43 151 43/Ben FFS2617858 1995 CHABRE YOURI AP ASPTT GAP 45.14 46.34 1:31.48 282.75
44 79 44/Ben FFS2603807 1995 JAUSSAUD CYRIL AP EC CHAMPSAUR 44.98 46.71 1:31.69 284.98
45 23 45/Ben FFS2619909 1995 COUTELEN JAN ALEXIS AP ST ANTOINE 44.39 47.35 1:31.74 285.51
46 22 46/Ben FFS2349004 1994 DUMONT CAMILLE AP ES VALLOUISE 44.97 46.83 1:31.80 286.15
47 48 47/Ben FFS2615525 1995 SIONNEAU PAUL AP SC QUEYRAS 44.60 47.40 1:32.00 288.27
48 7 48/Ben FFS2613901 1995 OULD'AMMAR ROMAIN AP CSH BRIANCON 44.75 47.37 1:32.12 289.54
49 19 49/Ben FFS2349110 1995 PRAYER MAEL AP CO DEVOLUY 44.49 47.87 1:32.36 292.08
49 30 49/Ben FFS2602917 1995 MATERA JEREMY AP SPORTIN VARS 44.86 47.50 1:32.36 292.08
51 50 51/Ben FFS2604800 1995 FORTOUL REMI AP CS RISOUL 45.49 46.97 1:32.46 293.14
52 3 52/Ben FFS2604075 1995 GALLERON ADRIEN AP SC ST LEGER 45.04 47.44 1:32.48 293.35
53 83 53/Ben FFS2606509 1995 BERTHEREAU PIERRICK AP GAP MERLETTE 45.53 47.06 1:32.59 294.52
54 34 54/Ben FFS2606200 1995 MICHEL MAXIMILIEN AP CO PRALOUP 45.30 47.34 1:32.64 295.05
54 68 54/Ben FFS2613811 1994 FORESTIER VALENTIN AP SC MONGENEVR 44.99 47.65 1:32.64 295.05
56 5 56/Ben FFS2348954 1994 COUSTOULIN YOANN AP SAUZE BARCEL 44.92 47.75 1:32.67 295.37
57 72 57/Ben FFS2349146 1994 BOREL BASTIEN AP SPORTIN VARS 45.41 47.48 1:32.89 297.70
58 55 58/Ben FFS2614405 1995 BLANC GRAS LUC AP GAP MERLETTE 45.23 47.71 1:32.94 298.23
59 90 59/Ben FFS2605107 1995 GALLETTI BAPTISTE AP SERRE CHEVAL 46.32 46.64 1:32.96 298.44
60 49 60/Ben FFS2606467 1995 MARCELLIN JOLAN AP SPORTIN VARS 45.51 47.48 1:32.99 298.76
60 92 60/Ben FFS2348966 1994 FERRY MAXENCE AP VAL D'ALLOS 46.51 46.48 1:32.99 298.76
62 12 62/Ben FFS2613804 1994 GILARDINO CHARLY AP SC MONGENEVR 48.28 44.82 1:33.10 299.93
63 154 63/Ben FFS2606067 1995 BAILLY CHARLY AP CS RISOUL 46.25 46.91 1:33.16 300.56
64 84 64/Ben FFS2613900 1995 OULD'AMMAR CHARLY AP CSH BRIANCON 45.70 47.48 1:33.18 300.77
65 56 65/Ben FFS2603156 1994 DEFLISQUE MARVIN AP ORC MERLETTE 46.15 47.10 1:33.25 301.52
66 69 66/Ben FFS2622352 1995 CYPRIANO ANATOLE AP VAL D'ALLOS 46.54 46.85 1:33.39 303.00
67 60 67/Ben FFS2602640 1995 BIANCHI BENOIT AP PUY ST VINCE 46.10 47.44 1:33.54 304.59
68 16 68/Ben FFS2604123 1994 DURAND GABRIEL AP CO DEVOLUY 45.63 48.00 1:33.63 305.54
69 29 69/Ben FFS2603853 1994 MOUREN OLIVIER AP SC CHAILLOL 46.05 48.09 1:34.14 310.95
70 153 70/Ben FFS2349032 1994 COMBES JULIEN AP ASPTT GAP 46.28 47.87 1:34.15 311.06
71 150 71/Ben FFS2602869 1994 PELLISSIER FLORIAN AP ASPTT GAP 46.85 47.40 1:34.25 312.12
72 64 72/Ben FFS2289014 1994 PRAYER JORDAN AP CO DEVOLUY 46.35 47.95 1:34.30 312.65
73 80 73/Ben FFS2613908 1995 DELEUIL LOUIS AP CSH BRIANCON 46.02 48.36 1:34.38 313.49
74 38 74/Ben FFS2349358 1994 LACROIX FABIEN AP CO PRALOUP 47.97 46.67 1:34.64 316.25
75 31 75/Ben FFS2349295 1994 SIMONET YANN AP ES VALLOUISE 46.98 48.41 1:35.39 324.20
76 8 76/Ben FFS2613909 1995 FAURE VINCENT ROBIN AP CSH BRIANCON 44.66 51.25 1:35.91 329.71
77 26 77/Ben FFS2602041 1995 DEBEUX EVANN AP SKI ACADEMIE 47.53 49.26 1:36.79 339.04
78 4 78/Ben FFS2604032 1994 REYNIER DORIAN AP SAUZE BARCEL 46.88 50.03 1:36.91 340.31
79 81 79/Ben FFS2319288 1995 ASTIER ELOI AP PUY ST VINCE 48.48 48.70 1:37.18 343.17
80 85 80/Ben FFS2604714 1995 BRUNET CARL AP SEYNE BLANCH 48.23 49.24 1:37.47 346.25
81 33 81/Ben FFS2615528 1995 HUBERT ANTOINE AP PUY ST VINCE 48.61 49.59 1:38.20 353.99
82 43 82/Ben FFS2613039 1995 BONNEMAIN GUILLAUME AP SERRE CHEVAL 44.92 55.75 1:40.67 380.17
83 37 83/Ben FFS2624307 1994 BARAGIONE ILAN AP ST ANNE JAUS 53.27 52.05 1:45.32 429.46
84 73 84/Ben FFS2319448 1995 MARTIN BORIS AP ST ANNE JAUS 50.57 55.20 1:45.77 434.23
85 46 85/Ben FFS2618246 1995 ZANETTI GEOFFROY AP PUY ST VINCE 58.20 48.67 1:46.87 445.89
86 71 86/Ben FFS2602916 1995 SEGOND JEREMY AP CS RISOUL 46.56 1:07.85 1:54.41 525.81
87 51 87/Ben FFS2319183 1994 GALDI THEO AP CS RISOUL 1:11.54 44.51 1:56.05 543.19
88 53 88/Ben FFS2602318 1995 BROQUEDIS ADRIEN AP ORRES EMBRUN 42.93 1:13.57 1:56.50 547.96
Abandons
1 FFS2602323 1994 GEHIN FLORIAN AP ORRES EMBRUN 47.66
9 FFS2349123 1994 BRUN SEBASTIEN AP CS RISOUL 46.64
10 FFS2349489 1994 MATHONNET ROBIN AP SAUZE BARCEL 44.38
63 FFS2604398 1994 GALAND ANTOINE AP GAP MERLETTE 44.51
77 FFS2348978 1995 ROCHAS TIM AP CO PRALOUP 45.47
78 FFS2617132 1995 MIGAULT MAXIME AP SC QUEYRAS 45.83
Disqualifiés
21 FFS2601335 1994 ARRHIE ADRIEN AP CSH BRIANCON 45.82
Non partants
13 FFS2617795 1994 REBOUL QUENTIN AP GAZELEC GAP
41 FFS2603757 1995 GIRAUD PASCAL AP ORC MERLETTE
45 FFS2618543 1995 RAYNAL SANTHOSH AP EC CHAMPSAUR
91 FFS2600853 1994 FINE BAPTISTE AP SERRE CHEVAL
Non traités
200 EXT-200
201 EXT-201
202 EXT-202